Time;durP1;ratioP1;P1;durP2;ratioP2;P2;SDS_P1;SDS_P2;PMS_P1;PMS_P2;Temp;Humidity;BMP_temperature;BMP_pressure;BME280_temperature;BME280_humidity;BME280_pressure;Samples;Min_cycle;Max_cycle;Signal;HPM_P1;HPM_P2
2021/10/07 00:00:52;;;;;;;3.60;1.37;;;;;;;-143.37;100.00;65745.06;5054037;28;20206;-72
2021/10/07 00:03:18;;;;;;;1.57;1.20;;;;;;;-143.37;100.00;65745.06;5053846;28;20202;-73
2021/10/07 00:05:45;;;;;;;2.27;1.57;;;;;;;-143.37;100.00;65745.06;5054148;28;20237;-72
2021/10/07 00:08:12;;;;;;;3.63;1.47;;;;;;;-143.37;100.00;65745.06;5054085;28;20314;-72
2021/10/07 00:10:38;;;;;;;2.63;1.40;;;;;;;-143.37;100.00;65745.06;5060293;28;20232;-73
2021/10/07 00:13:04;;;;;;;5.03;1.37;;;;;;;-143.37;100.00;65745.06;5080919;28;20205;-72
2021/10/07 00:15:31;;;;;;;2.60;1.47;;;;;;;-143.37;100.00;65745.06;5083546;28;20205;-72
2021/10/07 00:17:58;;;;;;;1.40;1.10;;;;;;;-143.37;100.00;65745.06;5080310;28;20225;-71
2021/10/07 00:20:25;;;;;;;3.47;1.53;;;;;;;-143.37;100.00;65745.06;5073832;28;20282;-72
2021/10/07 00:22:52;;;;;;;1.30;0.97;;;;;;;-143.37;100.00;65745.06;5071741;28;20292;-71
2021/10/07 00:25:19;;;;;;;4.03;1.60;;;;;;;-143.37;100.00;65745.06;5072423;28;20241;-73
2021/10/07 00:27:49;;;;;;;4.13;1.67;;;;;;;-143.37;100.00;65745.06;5072943;28;20722;-74
2021/10/07 00:30:21;;;;;;;1.63;1.30;;;;;;;-143.37;100.00;65745.06;5073121;28;20208;-72
2021/10/07 00:33:15;;;;;;;6.13;2.03;;;;;;;-143.37;100.00;65745.06;5071924;28;20299;-72
2021/10/07 00:35:49;;;;;;;1.70;1.20;;;;;;;-143.37;100.00;65745.06;5052802;28;20298;-74
2021/10/07 00:41:01;;;;;;;3.13;1.43;;;;;;;-143.37;100.00;65745.06;5067179;28;20669;-73
2021/10/07 00:43:27;;;;;;;1.53;1.43;;;;;;;-143.37;100.00;65745.06;5072630;28;20746;-73
2021/10/07 00:45:56;;;;;;;3.00;1.63;;;;;;;-143.37;100.00;65745.06;5072361;28;20239;-73
2021/10/07 00:48:23;;;;;;;3.97;1.60;;;;;;;-143.37;100.00;65745.06;5075277;28;20261;-73
2021/10/07 00:50:50;;;;;;;2.63;1.50;;;;;;;-143.37;100.00;65745.06;5073592;28;20248;-72
2021/10/07 00:53:18;;;;;;;1.97;1.50;;;;;;;-143.37;100.00;65745.06;5071522;28;20585;-72
2021/10/07 00:55:46;;;;;;;4.43;1.80;;;;;;;-143.37;100.00;65745.06;5072823;28;20642;-72
2021/10/07 00:58:14;;;;;;;2.57;1.53;;;;;;;-143.37;100.00;65745.06;5071617;28;20217;-71
2021/10/07 01:34:43;;;;;;;6.90;1.70;;;;;;;-143.37;100.00;65745.06;5109927;27;21107;-72
2021/10/07 01:37:09;;;;;;;3.20;1.80;;;;;;;-143.37;100.00;65745.06;5109419;28;20310;-72
2021/10/07 01:39:36;;;;;;;4.03;2.20;;;;;;;-143.37;100.00;65745.06;5106864;28;20231;-71
2021/10/07 01:42:03;;;;;;;4.17;2.10;;;;;;;-143.37;100.00;65745.06;5088596;28;20741;-70
2021/10/07 01:44:29;;;;;;;2.53;1.70;;;;;;;-143.37;100.00;65745.06;5088945;28;20243;-72
2021/10/07 01:46:56;;;;;;;3.63;1.97;;;;;;;-143.37;100.00;65745.06;5088846;28;20300;-71
2021/10/07 01:49:23;;;;;;;4.80;1.87;;;;;;;-143.37;100.00;65745.06;5088243;28;20308;-71
2021/10/07 01:51:49;;;;;;;2.60;1.80;;;;;;;-143.37;100.00;65745.06;5089685;28;20252;-71
2021/10/07 01:54:16;;;;;;;2.47;1.80;;;;;;;-143.37;100.00;65745.06;5090043;28;20311;-72
2021/10/07 01:56:43;;;;;;;2.60;1.93;;;;;;;-143.37;100.00;65745.06;5093114;28;20298;-71
2021/10/07 01:59:09;;;;;;;3.00;1.80;;;;;;;-143.37;100.00;65745.06;5109063;28;20323;-71
2021/10/07 02:01:36;;;;;;;2.33;1.97;;;;;;;-143.37;100.00;65745.06;5110839;28;20291;-72
2021/10/07 02:04:05;;;;;;;2.67;1.70;;;;;;;-143.37;100.00;65745.06;5110074;28;20206;-73
2021/10/07 02:06:32;;;;;;;3.07;2.13;;;;;;;-143.37;100.00;65745.06;5109029;28;20704;-72
2021/10/07 02:08:58;;;;;;;2.70;1.70;;;;;;;-143.37;100.00;65745.06;5109448;28;20250;-72
2021/10/07 02:11:25;;;;;;;4.77;1.53;;;;;;;-143.37;100.00;65745.06;5108921;28;20708;-71
2021/10/07 02:13:51;;;;;;;2.60;1.60;;;;;;;-143.37;100.00;65745.06;5108717;28;20311;-72
2021/10/07 02:16:18;;;;;;;2.67;1.57;;;;;;;-143.37;100.00;65745.06;5108780;27;20291;-72
2021/10/07 02:18:44;;;;;;;1.77;1.30;;;;;;;-143.37;100.00;65745.06;5109148;28;20390;-73
2021/10/07 02:21:14;;;;;;;5.47;1.67;;;;;;;-143.37;100.00;65745.06;5109333;28;20665;-72
2021/10/07 02:23:41;;;;;;;2.77;1.83;;;;;;;-143.37;100.00;65745.06;5108814;28;20736;-72
2021/10/07 02:26:08;;;;;;;1.80;1.43;;;;;;;-143.37;100.00;65745.06;5107581;28;20283;-71
2021/10/07 02:28:34;;;;;;;1.80;1.40;;;;;;;-143.37;100.00;65745.06;5108725;28;20319;-70
2021/10/07 02:31:01;;;;;;;2.23;1.40;;;;;;;-143.37;100.00;65745.06;5107778;28;20204;-72
2021/10/07 02:33:27;;;;;;;2.60;1.60;;;;;;;-143.37;100.00;65745.06;5108300;28;20259;-71
2021/10/07 02:35:54;;;;;;;2.50;1.37;;;;;;;-143.37;100.00;65745.06;5107824;28;20287;-70
2021/10/07 02:38:20;;;;;;;1.50;1.20;;;;;;;-143.37;100.00;65745.06;5107519;28;20669;-70
2021/10/07 02:40:47;;;;;;;2.77;1.23;;;;;;;-143.37;100.00;65745.06;5095319;28;20215;-70
2021/10/07 02:43:13;;;;;;;0.97;0.93;;;;;;;-143.37;100.00;65745.06;5087898;28;20205;-70
2021/10/07 02:45:40;;;;;;;1.83;1.20;;;;;;;-143.37;100.00;65745.06;5092432;28;20284;-71
2021/10/07 02:48:07;;;;;;;2.73;1.40;;;;;;;-143.37;100.00;65745.06;5074846;28;20232;-70
2021/10/07 02:50:33;;;;;;;3.73;1.40;;;;;;;-143.37;100.00;65745.06;5074975;28;20296;-71
2021/10/07 02:53:00;;;;;;;1.67;1.13;;;;;;;-143.37;100.00;65745.06;5076921;28;20224;-70
2021/10/07 02:55:26;;;;;;;1.80;1.40;;;;;;;-143.37;100.00;65745.06;5075522;28;20212;-70
2021/10/07 02:57:53;;;;;;;1.70;1.00;;;;;;;-143.37;100.00;65745.06;5074319;28;20718;-70
2021/10/07 03:00:19;;;;;;;3.03;1.63;;;;;;;-143.37;100.00;65745.06;5075738;28;20209;-70
2021/10/07 03:02:46;;;;;;;3.23;1.37;;;;;;;-143.37;100.00;65745.06;5075066;28;20292;-70
2021/10/07 03:05:13;;;;;;;2.23;1.20;;;;;;;-143.37;100.00;65745.06;5056402;28;20204;-72
2021/10/07 03:07:41;;;;;;;1.40;1.17;;;;;;;-143.37;100.00;65745.06;5090154;28;20285;-72
2021/10/07 03:10:08;;;;;;;1.40;1.30;;;;;;;-143.37;100.00;65745.06;5089691;28;20232;-71
2021/10/07 03:12:35;;;;;;;2.80;1.20;;;;;;;-143.37;100.00;65745.06;5074445;28;20308;-71
2021/10/07 03:15:03;;;;;;;2.40;1.43;;;;;;;-143.37;100.00;65745.06;5073664;28;20308;-71
2021/10/07 03:17:30;;;;;;;2.10;1.23;;;;;;;-143.37;100.00;65745.06;5074219;28;20298;-71
2021/10/07 03:19:56;;;;;;;2.10;1.10;;;;;;;-143.37;100.00;65745.06;5074024;28;20288;-71
2021/10/07 03:22:23;;;;;;;2.60;1.30;;;;;;;-143.37;100.00;65745.06;5072647;28;20213;-70
2021/10/07 03:24:50;;;;;;;2.07;1.13;;;;;;;-143.37;100.00;65745.06;5073382;28;20316;-71
2021/10/07 03:27:17;;;;;;;1.63;1.20;;;;;;;-143.37;100.00;65745.06;5073956;28;20233;-71
2021/10/07 03:29:44;;;;;;;3.43;1.20;;;;;;;-143.37;100.00;65745.06;5073890;28;20232;-71
2021/10/07 03:32:10;;;;;;;2.70;1.70;;;;;;;-143.37;100.00;65745.06;5072683;28;20292;-71
2021/10/07 03:34:37;;;;;;;1.30;0.90;;;;;;;-143.37;100.00;65745.06;5088267;28;20224;-71
2021/10/07 03:37:03;;;;;;;3.70;1.33;;;;;;;-143.37;100.00;65745.06;5093814;28;20591;-71
2021/10/07 03:39:30;;;;;;;2.63;1.27;;;;;;;-143.37;100.00;65745.06;5092967;28;20295;-71
2021/10/07 03:41:56;;;;;;;1.90;1.40;;;;;;;-143.37;100.00;65745.06;5074600;28;20241;-71
2021/10/07 03:44:23;;;;;;;2.13;1.40;;;;;;;-143.37;100.00;65745.06;5087848;28;20636;-72
2021/10/07 03:46:50;;;;;;;0.80;0.80;;;;;;;-143.37;100.00;65745.06;5091532;28;20224;-72
2021/10/07 03:49:16;;;;;;;1.73;1.17;;;;;;;-143.37;100.00;65745.06;5075730;28;20205;-71
2021/10/07 03:51:43;;;;;;;1.40;1.13;;;;;;;-143.37;100.00;65745.06;5074061;28;20295;-72
2021/10/07 03:54:09;;;;;;;2.77;1.40;;;;;;;-143.37;100.00;65745.06;5073351;28;20321;-72
2021/10/07 03:56:38;;;;;;;1.90;1.33;;;;;;;-143.37;100.00;65745.06;5076183;28;20293;-71
2021/10/07 03:59:05;;;;;;;1.60;1.10;;;;;;;-143.37;100.00;65745.06;5094644;28;20311;-70
2021/10/07 04:01:32;;;;;;;1.90;1.00;;;;;;;-143.37;100.00;65745.06;5094476;28;20295;-71
2021/10/07 04:03:59;;;;;;;2.43;1.40;;;;;;;-143.37;100.00;65745.06;5093585;28;20723;-73
2021/10/07 04:06:25;;;;;;;0.93;0.80;;;;;;;-143.37;100.00;65745.06;5092171;28;20207;-73
2021/10/07 04:08:52;;;;;;;1.90;1.33;;;;;;;-143.37;100.00;65745.06;5093709;28;20735;-73
2021/10/07 04:11:20;;;;;;;1.87;1.40;;;;;;;-143.37;100.00;65745.06;5093749;28;20213;-73
2021/10/07 04:13:47;;;;;;;4.00;1.37;;;;;;;-143.37;100.00;65745.06;5093261;28;20311;-72
2021/10/07 04:16:14;;;;;;;3.77;1.50;;;;;;;-143.37;100.00;65745.06;5093793;28;20646;-73
2021/10/07 04:18:43;;;;;;;1.23;1.00;;;;;;;-143.37;100.00;65745.06;5105531;28;20277;-73
2021/10/07 04:21:11;;;;;;;2.33;1.20;;;;;;;-143.37;100.00;65745.06;5112149;28;20240;-72
2021/10/07 04:23:38;;;;;;;2.60;1.50;;;;;;;-143.37;100.00;65745.06;5101517;28;20681;-71
2021/10/07 04:26:08;;;;;;;3.93;1.50;;;;;;;-143.37;100.00;65745.06;5093007;28;20287;-73
2021/10/07 04:28:35;;;;;;;1.90;1.40;;;;;;;-143.37;100.00;65745.06;5093503;28;20225;-73
2021/10/07 04:31:02;;;;;;;3.57;1.20;;;;;;;-143.37;100.00;65745.06;5082834;28;20205;-73
2021/10/07 04:33:29;;;;;;;3.77;1.60;;;;;;;-143.37;100.00;65745.06;5071280;28;20228;-72
2021/10/07 04:35:55;;;;;;;1.37;1.10;;;;;;;-143.37;100.00;65745.06;5072687;28;20233;-71
2021/10/07 04:38:21;;;;;;;1.60;1.20;;;;;;;-143.37;100.00;65745.06;5072993;28;20312;-74
2021/10/07 04:40:48;;;;;;;1.83;1.30;;;;;;;-143.37;100.00;65745.06;5073544;28;20237;-71
2021/10/07 04:43:18;;;;;;;2.30;1.43;;;;;;;-143.37;100.00;65745.06;5079839;28;20209;-71
2021/10/07 04:45:45;;;;;;;2.30;1.37;;;;;;;-143.37;100.00;65745.06;5069627;28;20311;-71
2021/10/07 04:48:12;;;;;;;2.13;1.50;;;;;;;-143.37;100.00;65745.06;5054329;28;20311;-72
2021/10/07 04:50:39;;;;;;;1.83;1.40;;;;;;;-143.37;100.00;65745.06;5057241;28;20644;-71
2021/10/07 04:53:06;;;;;;;2.77;1.47;;;;;;;-143.37;100.00;65745.06;5056311;28;20209;-71
2021/10/07 04:55:33;;;;;;;1.47;1.37;;;;;;;-143.37;100.00;65745.06;5053640;28;20274;-72
2021/10/07 04:58:00;;;;;;;4.30;1.83;;;;;;;-143.37;100.00;65745.06;5086288;28;20307;-73
2021/10/07 05:00:27;;;;;;;3.10;1.53;;;;;;;-143.37;100.00;65745.06;5096390;28;20657;-72
2021/10/07 05:02:54;;;;;;;2.53;1.20;;;;;;;-143.37;100.00;65745.06;5093496;28;20207;-72
2021/10/07 05:05:21;;;;;;;2.33;1.60;;;;;;;-143.37;100.00;65745.06;5091537;28;20204;-71
2021/10/07 05:07:47;;;;;;;2.00;1.20;;;;;;;-143.37;100.00;65745.06;5092812;28;20256;-71
2021/10/07 05:10:14;;;;;;;3.93;2.03;;;;;;;-143.37;100.00;65745.06;5091932;28;20272;-72
2021/10/07 05:12:40;;;;;;;2.97;1.47;;;;;;;-143.37;100.00;65745.06;5073128;28;20267;-72
2021/10/07 05:15:10;;;;;;;4.73;1.67;;;;;;;-143.37;100.00;65745.06;5072724;28;20735;-71
2021/10/07 05:17:37;;;;;;;3.23;2.10;;;;;;;-143.37;100.00;65745.06;5073598;28;20292;-72
2021/10/07 05:20:05;;;;;;;2.73;1.70;;;;;;;-143.37;100.00;65745.06;5073858;28;20262;-71
2021/10/07 05:22:32;;;;;;;3.20;1.97;;;;;;;-143.37;100.00;65745.06;5074214;28;20209;-72
2021/10/07 05:24:58;;;;;;;4.80;2.43;;;;;;;-143.37;100.00;65745.06;5071073;28;20209;-72
2021/10/07 05:27:24;;;;;;;2.83;2.00;;;;;;;-143.37;100.00;65745.06;5072290;28;20241;-71
2021/10/07 05:29:51;;;;;;;2.40;1.70;;;;;;;-143.37;100.00;65745.06;5072401;28;20241;-71
2021/10/07 05:32:17;;;;;;;5.30;2.07;;;;;;;-143.37;100.00;65745.06;5072688;28;20299;-71
2021/10/07 05:34:44;;;;;;;4.53;2.07;;;;;;;-143.37;100.00;65745.06;5090759;28;20314;-72
2021/10/07 05:37:11;;;;;;;2.30;1.23;;;;;;;-143.37;100.00;65745.06;5092308;28;20220;-72
2021/10/07 05:39:37;;;;;;;3.80;1.60;;;;;;;-143.37;100.00;65745.06;5093260;28;20236;-72
2021/10/07 05:42:04;;;;;;;3.20;1.87;;;;;;;-143.37;100.00;65745.06;5075897;28;20272;-71
2021/10/07 05:44:31;;;;;;;2.67;1.70;;;;;;;-143.37;100.00;65745.06;5072134;28;20323;-71
2021/10/07 05:46:57;;;;;;;2.27;1.50;;;;;;;-143.37;100.00;65745.06;5058446;28;20643;-72
2021/10/07 05:49:26;;;;;;;2.20;1.60;;;;;;;-143.37;100.00;65745.06;5052974;28;20222;-71
2021/10/07 05:51:54;;;;;;;3.33;1.40;;;;;;;-143.37;100.00;65745.06;5052418;28;20237;-71
2021/10/07 05:54:21;;;;;;;2.27;1.60;;;;;;;-143.37;100.00;65745.06;5059005;28;20263;-71
2021/10/07 05:56:48;;;;;;;1.83;1.67;;;;;;;-143.37;100.00;65745.06;5061025;28;20225;-72
2021/10/07 05:59:15;;;;;;;3.17;1.90;;;;;;;-143.37;100.00;65745.06;5054885;28;20297;-72
2021/10/07 06:01:42;;;;;;;3.60;1.63;;;;;;;-143.37;100.00;65745.06;5053751;28;20320;-70
2021/10/07 06:04:09;;;;;;;11.43;2.00;;;;;;;-143.37;100.00;65745.06;5068771;28;20220;-72
2021/10/07 06:06:35;;;;;;;2.63;1.50;;;;;;;-143.37;100.00;65745.06;5070409;28;20233;-72
2021/10/07 06:09:02;;;;;;;4.03;1.27;;;;;;;-143.37;100.00;65745.06;5069829;28;20303;-71
2021/10/07 06:11:28;;;;;;;4.77;1.93;;;;;;;-143.37;100.00;65745.06;5064854;28;20215;-71
2021/10/07 06:13:55;;;;;;;4.13;1.60;;;;;;;-143.37;100.00;65745.06;5069028;28;20266;-71
2021/10/07 06:16:22;;;;;;;2.37;1.70;;;;;;;-143.37;100.00;65745.06;5070904;28;20236;-71
2021/10/07 06:18:50;;;;;;;3.40;1.77;;;;;;;-143.37;100.00;65745.06;5071463;28;20252;-72
2021/10/07 06:21:16;;;;;;;1.93;1.57;;;;;;;-143.37;100.00;65745.06;5074237;28;20209;-72
2021/10/07 06:23:57;;;;;;;4.20;1.60;;;;;;;-143.37;100.00;65745.06;5071809;28;20731;-71
2021/10/07 06:26:36;;;;;;;3.80;1.70;;;;;;;-143.37;100.00;65745.06;5070356;28;20289;-72
2021/10/07 06:29:03;;;;;;;4.47;1.47;;;;;;;-143.37;100.00;65745.06;5069834;28;20313;-72
2021/10/07 06:31:29;;;;;;;2.90;1.30;;;;;;;-143.37;100.00;65745.06;5067024;28;20289;-70
2021/10/07 06:33:56;;;;;;;8.53;1.50;;;;;;;-143.37;100.00;65745.06;5070219;28;20312;-70
2021/10/07 06:36:22;;;;;;;3.43;1.50;;;;;;;-143.37;100.00;65745.06;5065737;28;20206;-70
2021/10/07 06:38:49;;;;;;;2.10;1.53;;;;;;;-143.37;100.00;65745.06;5070771;28;20249;-71
2021/10/07 06:41:17;;;;;;;2.40;1.43;;;;;;;-143.37;100.00;65745.06;5073807;28;20233;-71
2021/10/07 06:43:44;;;;;;;4.23;1.40;;;;;;;-143.37;100.00;65745.06;5072638;28;20822;-70
2021/10/07 06:46:11;;;;;;;4.17;1.60;;;;;;;-143.37;100.00;65745.06;5073619;28;20287;-70
2021/10/07 06:48:37;;;;;;;3.07;1.47;;;;;;;-143.37;100.00;65745.06;5072698;28;20229;-71
2021/10/07 06:51:09;;;;;;;3.87;1.33;;;;;;;-143.37;100.00;65745.06;5073624;28;20297;-70
2021/10/07 06:53:38;;;;;;;2.70;1.50;;;;;;;-143.37;100.00;65745.06;5071931;28;20701;-71
2021/10/07 06:56:06;;;;;;;2.80;1.53;;;;;;;-143.37;100.00;65745.06;5069598;28;20706;-70
2021/10/07 06:58:33;;;;;;;2.70;1.60;;;;;;;-143.37;100.00;65745.06;5072953;28;20260;-70
2021/10/07 07:01:02;;;;;;;3.53;1.60;;;;;;;-143.37;100.00;65745.06;5073598;28;20211;-70
2021/10/07 07:03:29;;;;;;;1.73;1.53;;;;;;;-143.37;100.00;65745.06;5072791;28;20205;-71
2021/10/07 07:05:55;;;;;;;3.87;1.57;;;;;;;-143.37;100.00;65745.06;5073471;28;20233;-70
2021/10/07 07:08:22;;;;;;;3.33;1.43;;;;;;;-143.37;100.00;65745.06;5072908;28;20271;-70
2021/10/07 07:10:49;;;;;;;4.90;1.57;;;;;;;-143.37;100.00;65745.06;5072971;28;20232;-72
2021/10/07 07:13:16;;;;;;;2.20;1.57;;;;;;;-143.37;100.00;65745.06;5073206;28;20296;-72
2021/10/07 07:15:43;;;;;;;3.13;1.63;;;;;;;-143.37;100.00;65745.06;5072143;28;20286;-72
2021/10/07 07:18:09;;;;;;;2.30;1.60;;;;;;;-143.37;100.00;65745.06;5072749;28;20294;-72
2021/10/07 07:20:36;;;;;;;5.67;1.60;;;;;;;-143.37;100.00;65745.06;5073223;28;20237;-72
2021/10/07 07:23:07;;;;;;;3.20;1.73;;;;;;;-143.37;100.00;65745.06;5073032;28;20324;-72
2021/10/07 07:25:34;;;;;;;3.77;1.30;;;;;;;-143.37;100.00;65745.06;5072626;28;20730;-73
2021/10/07 07:28:00;;;;;;;2.63;1.53;;;;;;;-143.37;100.00;65745.06;5072796;28;20324;-73
2021/10/07 07:30:28;;;;;;;1.43;1.20;;;;;;;-143.37;100.00;65745.06;5071322;28;20656;-74
2021/10/07 07:32:54;;;;;;;1.57;1.23;;;;;;;-143.37;100.00;65745.06;5070132;28;20252;-72
2021/10/07 07:35:21;;;;;;;2.77;1.30;;;;;;;-143.37;100.00;65745.06;5066613;28;20306;-72
2021/10/07 07:37:47;;;;;;;2.63;1.57;;;;;;;-143.37;100.00;65745.06;5083959;28;20316;-72
2021/10/07 07:40:14;;;;;;;2.60;1.63;;;;;;;-143.37;100.00;65745.06;5072696;28;20205;-72
2021/10/07 07:42:43;;;;;;;2.33;1.60;;;;;;;-143.37;100.00;65745.06;5072738;28;20213;-72
2021/10/07 07:45:10;;;;;;;3.93;1.90;;;;;;;-143.37;100.00;65745.06;5072197;28;20225;-71
2021/10/07 07:47:54;;;;;;;4.33;1.60;;;;;;;-143.37;100.00;65745.06;5071212;28;20248;-71
2021/10/07 07:50:23;;;;;;;2.37;1.60;;;;;;;-143.37;100.00;65745.06;5071541;28;20209;-70
2021/10/07 07:52:51;;;;;;;4.90;1.43;;;;;;;-143.37;100.00;65745.06;5064261;28;20269;-71
2021/10/07 07:55:21;;;;;;;1.83;1.57;;;;;;;-143.37;100.00;65745.06;5072180;28;20221;-71
2021/10/07 07:57:48;;;;;;;2.20;1.30;;;;;;;-143.37;100.00;65745.06;5070303;28;20314;-71
2021/10/07 08:00:14;;;;;;;3.10;2.07;;;;;;;-143.37;100.00;65745.06;5071629;28;20252;-71
2021/10/07 08:02:41;;;;;;;2.73;1.63;;;;;;;-143.37;100.00;65745.06;5066736;28;20202;-71
2021/10/07 08:05:08;;;;;;;2.00;1.27;;;;;;;-143.37;100.00;65745.06;5072361;28;20233;-71
2021/10/07 08:07:35;;;;;;;2.13;1.43;;;;;;;-143.37;100.00;65745.06;5071822;28;20267;-74
2021/10/07 08:10:02;;;;;;;1.50;1.33;;;;;;;-143.37;100.00;65745.06;5033974;28;20224;-73
2021/10/07 08:12:33;;;;;;;1.20;0.90;;;;;;;-143.37;100.00;65745.06;5074214;28;20657;-72
2021/10/07 08:15:01;;;;;;;1.90;1.17;;;;;;;-143.37;100.00;65745.06;5073476;28;20555;-73
2021/10/07 08:17:27;;;;;;;1.10;1.00;;;;;;;-143.37;100.00;65745.06;5074804;28;20221;-73
2021/10/07 08:19:54;;;;;;;1.10;1.00;;;;;;;-143.37;100.00;65745.06;5076940;28;20223;-75
2021/10/07 08:22:22;;;;;;;2.33;1.30;;;;;;;-143.37;100.00;65745.06;5076873;28;20251;-73
2021/10/07 08:24:48;;;;;;;2.43;1.10;;;;;;;-143.37;100.00;65745.06;5077324;28;20239;-73
2021/10/07 08:27:15;;;;;;;1.88;1.00;;;;;;;-143.37;100.00;65745.06;5075674;28;20269;-74
2021/10/07 08:29:42;;;;;;;1.33;0.95;;;;;;;-143.37;100.00;65745.06;5074054;28;20292;-74
2021/10/07 08:32:08;;;;;;;2.38;1.15;;;;;;;-143.37;100.00;65745.06;5071572;28;20686;-73
2021/10/07 08:34:35;;;;;;;1.88;1.13;;;;;;;-143.37;100.00;65745.06;5085363;28;20227;-72
2021/10/07 08:37:04;;;;;;;3.22;1.60;;;;;;;-143.37;100.00;65745.06;5092481;28;20243;-74
2021/10/07 08:39:31;;;;;;;1.70;1.30;;;;;;;-143.37;100.00;65745.06;5091408;28;20291;-73
2021/10/07 08:41:58;;;;;;;2.03;1.27;;;;;;;-143.37;100.00;65745.06;5070743;28;20699;-72
2021/10/07 08:44:24;;;;;;;2.30;1.60;;;;;;;-143.37;100.00;65745.06;5071204;28;20205;-73
2021/10/07 08:46:53;;;;;;;2.27;1.20;;;;;;;-143.37;100.00;65745.06;5054779;28;20330;-74
2021/10/07 08:49:22;;;;;;;1.90;1.30;;;;;;;-143.37;100.00;65745.06;5077616;28;20213;-74
2021/10/07 08:51:50;;;;;;;3.63;1.60;;;;;;;-143.37;100.00;65745.06;5085192;28;20236;-72
2021/10/07 08:54:17;;;;;;;2.70;1.63;;;;;;;-143.37;100.00;65745.06;5078873;28;20220;-73
2021/10/07 08:56:44;;;;;;;1.97;1.43;;;;;;;-143.37;100.00;65745.06;5075665;28;20244;-72
2021/10/07 08:59:10;;;;;;;3.27;1.50;;;;;;;-143.37;100.00;65745.06;5092373;28;20315;-73
2021/10/07 09:01:37;;;;;;;3.10;1.50;;;;;;;-143.37;100.00;65745.06;5092454;28;20208;-73
2021/10/07 09:04:26;;;;;;;3.90;1.60;;;;;;;-143.37;100.00;65745.06;5092065;28;20665;-73
2021/10/07 09:07:05;;;;;;;2.50;1.57;;;;;;;-143.37;100.00;65745.06;5091886;28;20326;-74
2021/10/07 09:09:33;;;;;;;3.77;1.90;;;;;;;-143.37;100.00;65745.06;5092665;28;20653;-72
2021/10/07 09:12:04;;;;;;;5.03;2.13;;;;;;;-143.37;100.00;65745.06;5075079;28;20284;-73
2021/10/07 09:14:34;;;;;;;2.67;1.70;;;;;;;-143.37;100.00;65745.06;5086906;28;20202;-73
2021/10/07 09:17:03;;;;;;;2.57;1.70;;;;;;;-143.37;100.00;65745.06;5071940;28;20213;-73
2021/10/07 09:19:31;;;;;;;2.37;1.70;;;;;;;-143.37;100.00;65745.06;5072426;28;20227;-75
2021/10/07 09:22:11;;;;;;;2.37;1.83;;;;;;;-143.37;100.00;65745.06;5072316;28;20654;-73
2021/10/07 09:24:41;;;;;;;3.03;2.23;;;;;;;-143.37;100.00;65745.06;5089658;28;20216;-74
2021/10/07 09:27:11;;;;;;;2.97;1.97;;;;;;;-143.37;100.00;65745.06;5087384;28;20692;-73
2021/10/07 09:29:51;;;;;;;2.60;1.70;;;;;;;-143.37;100.00;65745.06;5075317;28;20282;-73
2021/10/07 09:32:46;;;;;;;3.87;1.93;;;;;;;-143.37;100.00;65745.06;5070936;28;20280;-73
2021/10/07 09:35:16;;;;;;;2.20;2.00;;;;;;;-143.37;100.00;65745.06;5091252;28;20216;-74
2021/10/07 09:37:44;;;;;;;3.77;2.00;;;;;;;-143.37;100.00;65745.06;5092043;28;20756;-73
2021/10/07 09:40:23;;;;;;;3.83;2.43;;;;;;;-143.37;100.00;65745.06;5085115;28;20260;-71
2021/10/07 09:42:56;;;;;;;4.80;2.53;;;;;;;-143.37;100.00;65745.06;5071796;28;20284;-73
2021/10/07 09:45:30;;;;;;;8.73;2.57;;;;;;;-143.37;100.00;65745.06;5071165;28;20248;-72
2021/10/07 09:48:04;;;;;;;6.27;3.00;;;;;;;-143.37;100.00;65745.06;5071581;28;20395;-72
2021/10/07 09:50:39;;;;;;;4.67;2.23;;;;;;;-143.37;100.00;65745.06;5072086;28;20200;-73
2021/10/07 09:53:17;;;;;;;3.73;2.40;;;;;;;-143.37;100.00;65745.06;5072078;28;20287;-73
2021/10/07 09:55:45;;;;;;;4.30;2.73;;;;;;;-143.37;100.00;65745.06;5074660;28;20263;-72
2021/10/07 09:58:22;;;;;;;3.70;2.63;;;;;;;-143.37;100.00;65745.06;5092163;28;20751;-72
2021/10/07 10:00:58;;;;;;;4.23;2.53;;;;;;;-143.37;100.00;65745.06;5094829;28;20242;-73
2021/10/07 10:03:25;;;;;;;8.67;3.10;;;;;;;-143.37;100.00;65745.06;5096246;28;20268;-73
2021/10/07 10:05:53;;;;;;;5.07;2.37;;;;;;;-143.37;100.00;65745.06;5095600;28;20200;-73
2021/10/07 10:08:21;;;;;;;8.97;3.60;;;;;;;-143.37;100.00;65745.06;5096010;28;20235;-74
2021/10/07 10:10:51;;;;;;;4.30;3.07;;;;;;;-143.37;100.00;65745.06;5089917;28;20573;-73
2021/10/07 10:13:18;;;;;;;5.67;3.40;;;;;;;-143.37;100.00;65745.06;5075767;28;20313;-73
2021/10/07 10:15:45;;;;;;;6.47;2.73;;;;;;;-143.37;100.00;65745.06;5074646;28;20248;-73
2021/10/07 10:18:14;;;;;;;3.90;2.77;;;;;;;-143.37;100.00;65745.06;5091267;28;20229;-72
2021/10/07 10:20:45;;;;;;;3.83;2.87;;;;;;;-143.37;100.00;65745.06;5075442;28;20299;-73
2021/10/07 10:23:16;;;;;;;4.83;2.43;;;;;;;-143.37;100.00;65745.06;5075344;28;20740;-73
2021/10/07 10:25:57;;;;;;;5.57;3.10;;;;;;;-143.37;100.00;65745.06;5075402;28;20217;-73
2021/10/07 10:28:31;;;;;;;4.33;2.67;;;;;;;-143.37;100.00;65745.06;5075261;28;20261;-72
2021/10/07 10:31:03;;;;;;;5.87;3.07;;;;;;;-143.37;100.00;65745.06;5074749;28;20663;-72
2021/10/07 10:33:33;;;;;;;3.87;2.77;;;;;;;-143.37;100.00;65745.06;5079846;28;20295;-74
2021/10/07 10:36:00;;;;;;;3.43;2.73;;;;;;;-143.37;100.00;65745.06;5093009;28;20315;-74
2021/10/07 10:38:28;;;;;;;4.23;2.67;;;;;;;-143.37;100.00;65745.06;5094700;28;20593;-74
2021/10/07 10:41:09;;;;;;;5.07;2.70;;;;;;;-143.37;100.00;65745.06;5093303;28;20686;-72
2021/10/07 10:43:36;;;;;;;6.00;2.97;;;;;;;-143.37;100.00;65745.06;5094405;28;20261;-72
2021/10/07 10:46:06;;;;;;;6.03;3.27;;;;;;;-143.37;100.00;65745.06;5093041;28;20689;-72
2021/10/07 10:48:41;;;;;;;4.43;3.00;;;;;;;-143.37;100.00;65745.06;5094236;28;20236;-73
2021/10/07 10:51:12;;;;;;;6.63;2.90;;;;;;;-143.37;100.00;65745.06;5094608;28;20218;-74
2021/10/07 10:54:03;;;;;;;9.17;2.93;;;;;;;-143.37;100.00;65745.06;5093194;28;20749;-74
2021/10/07 10:56:33;;;;;;;3.90;2.73;;;;;;;-143.37;100.00;65745.06;5094718;28;20307;-73
2021/10/07 10:59:17;;;;;;;3.33;2.37;;;;;;;-143.37;100.00;65745.06;5093220;28;20221;-72
2021/10/07 11:01:45;;;;;;;2.97;2.50;;;;;;;-143.37;100.00;65745.06;5093128;28;20239;-72
2021/10/07 11:04:44;;;;;;;3.97;2.60;;;;;;;-143.37;100.00;65745.06;5094071;28;20219;-73
2021/10/07 11:07:23;;;;;;;5.97;3.03;;;;;;;-143.37;100.00;65745.06;5093830;28;22011;-74
2021/10/07 11:09:53;;;;;;;5.45;2.88;;;;;;;-143.37;100.00;65745.06;5093742;28;20238;-73
2021/10/07 11:12:20;;;;;;;4.97;2.65;;;;;;;-143.37;100.00;65745.06;5075059;28;20729;-73
2021/10/07 11:14:49;;;;;;;3.63;2.47;;;;;;;-143.37;100.00;65745.06;5076281;28;20769;-73
2021/10/07 11:17:18;;;;;;;4.57;2.40;;;;;;;-143.37;100.00;65745.06;5076942;28;20240;-74
2021/10/07 11:19:46;;;;;;;3.75;2.10;;;;;;;-143.37;100.00;65745.06;5075192;28;20205;-74
2021/10/07 11:22:12;;;;;;;3.60;1.83;;;;;;;-143.37;100.00;65745.06;5077253;28;20232;-74
2021/10/07 11:24:54;;;;;;;3.33;1.95;;;;;;;-143.37;100.00;65745.06;5075813;28;20305;-74
2021/10/07 11:27:33;;;;;;;1.98;1.63;;;;;;;-143.37;100.00;65745.06;5057181;28;20328;-75
2021/10/07 11:30:02;;;;;;;4.68;1.98;;;;;;;-143.37;100.00;65745.06;5074296;28;20243;-73
2021/10/07 11:32:29;;;;;;;4.45;2.50;;;;;;;-143.37;100.00;65745.06;5074383;28;20246;-74
2021/10/07 11:35:11;;;;;;;6.60;2.60;;;;;;;-143.37;100.00;65745.06;5090634;28;20217;-73
2021/10/07 11:38:00;;;;;;;5.50;2.28;;;;;;;-143.37;100.00;65745.06;5093799;28;20256;-73
2021/10/07 11:40:35;;;;;;;3.15;1.92;;;;;;;-143.37;100.00;65745.06;5085144;28;20658;-74
2021/10/07 11:43:09;;;;;;;2.95;2.38;;;;;;;-143.37;100.00;65745.06;5072503;28;20240;-72
2021/10/07 11:45:39;;;;;;;7.13;3.08;;;;;;;-143.37;100.00;65745.06;5073244;28;20201;-74
2021/10/07 11:48:09;;;;;;;3.67;2.22;;;;;;;-143.37;100.00;65745.06;5074065;28;20220;-74
2021/10/07 11:50:46;;;;;;;4.20;1.92;;;;;;;-143.37;100.00;65745.06;5073161;28;20303;-73
2021/10/07 11:53:16;;;;;;;3.72;1.80;;;;;;;-143.37;100.00;65745.06;5073658;28;20291;-72